createdAt,value
2019-02-01T00:02:13.837Z,0.20
2019-02-01T00:05:01.886Z,0.20
2019-02-01T00:07:49.770Z,0.20
2019-02-01T00:10:37.677Z,0.20
2019-02-01T00:16:14.915Z,0.10
2019-02-01T00:19:02.862Z,0.10
2019-02-01T00:21:50.830Z,0.10
2019-02-01T00:24:38.706Z,0.00
2019-02-01T00:27:26.616Z,0.00
2019-02-01T00:30:33.839Z,0.00
2019-02-01T00:33:27.246Z,-0.10
2019-02-01T00:36:11.365Z,-0.10
2019-02-01T00:38:59.355Z,-0.10
2019-02-01T00:41:47.383Z,-0.10
2019-02-01T00:44:35.590Z,-0.10
2019-02-01T00:47:23.690Z,-0.10
2019-02-01T00:50:12.073Z,-0.20
2019-02-01T00:53:00.035Z,-0.20
2019-02-01T00:55:48.004Z,-0.30
2019-02-01T00:58:35.959Z,-0.30
2019-02-01T01:01:24.042Z,-0.30
2019-02-01T01:04:11.902Z,-0.30
2019-02-01T01:06:59.875Z,-0.30
2019-02-01T01:09:47.757Z,-0.30
2019-02-01T01:12:28.482Z,-0.30
2019-02-01T01:15:09.315Z,-0.30
2019-02-01T01:17:50.220Z,-0.30
2019-02-01T01:20:31.412Z,-0.30
2019-02-01T01:23:12.278Z,-0.30
2019-02-01T01:25:53.385Z,-0.30
2019-02-01T01:28:34.100Z,-0.30
2019-02-01T01:31:14.687Z,-0.30
2019-02-01T01:33:55.727Z,-0.30
2019-02-01T01:36:36.623Z,-0.30
2019-02-01T01:39:18.158Z,-0.30
2019-02-01T01:41:59.197Z,-0.40
2019-02-01T01:44:39.668Z,-0.40
2019-02-01T01:47:20.817Z,-0.40
2019-02-01T01:50:01.815Z,-0.40
2019-02-01T01:52:42.838Z,-0.40
2019-02-01T01:55:23.826Z,-0.40
2019-02-01T01:58:04.762Z,-0.40
2019-02-01T02:00:45.692Z,-0.40
2019-02-01T02:03:26.237Z,-0.40
2019-02-01T02:06:06.837Z,-0.40
2019-02-01T02:08:47.486Z,-0.40
2019-02-01T02:11:28.411Z,-0.40
2019-02-01T02:14:09.237Z,-0.40
2019-02-01T02:16:49.775Z,-0.40
2019-02-01T02:19:30.926Z,-0.40
2019-02-01T02:22:11.684Z,-0.40
2019-02-01T02:24:52.328Z,-0.40
2019-02-01T02:27:32.994Z,-0.40
2019-02-01T02:30:13.821Z,-0.40
2019-02-01T02:32:54.230Z,-0.40
2019-02-01T02:35:34.810Z,-0.40
2019-02-01T02:38:15.626Z,-0.40
2019-02-01T02:40:59.254Z,-0.40
2019-02-01T02:43:39.235Z,-0.40
2019-02-01T02:46:20.195Z,-0.30
2019-02-01T02:49:00.891Z,-0.30
2019-02-01T02:51:41.911Z,-0.30
2019-02-01T02:54:22.997Z,-0.30
2019-02-01T02:57:03.555Z,-0.30
2019-02-01T02:59:44.297Z,-0.30
2019-02-01T03:02:25.364Z,-0.30
2019-02-01T03:05:05.819Z,-0.30
2019-02-01T03:07:46.735Z,-0.30
2019-02-01T03:10:27.267Z,-0.30
2019-02-01T03:13:07.870Z,-0.30
2019-02-01T03:15:48.695Z,-0.30
2019-02-01T03:18:29.853Z,-0.30
2019-02-01T03:21:10.571Z,-0.30
2019-02-01T03:23:51.461Z,-0.30
2019-02-01T03:26:32.176Z,-0.30
2019-02-01T03:29:13.149Z,-0.30
2019-02-01T03:31:54.179Z,-0.30
2019-02-01T03:34:34.583Z,-0.30
2019-02-01T03:37:14.940Z,-0.30
2019-02-01T03:39:55.991Z,-0.30
2019-02-01T03:42:37.009Z,-0.30
2019-02-01T03:45:17.530Z,-0.30
2019-02-01T03:47:58.371Z,-0.30
2019-02-01T03:53:58.334Z,-0.30
2019-02-01T03:56:38.843Z,-0.30
2019-02-01T03:59:19.702Z,-0.20
2019-02-01T04:02:00.433Z,-0.20
2019-02-01T04:04:41.288Z,-0.20
2019-02-01T04:07:21.839Z,-0.20
2019-02-01T04:10:02.330Z,-0.20
2019-02-01T04:12:43.292Z,-0.20
2019-02-01T04:15:24.160Z,-0.20
2019-02-01T04:18:04.868Z,-0.20
2019-02-01T04:20:45.675Z,-0.20
2019-02-01T04:23:26.063Z,-0.20
2019-02-01T04:26:06.960Z,-0.20
2019-02-01T04:28:47.975Z,-0.20
2019-02-01T04:31:28.476Z,-0.20
2019-02-01T04:34:09.098Z,-0.20
2019-02-01T04:36:49.447Z,-0.20
2019-02-01T04:39:29.929Z,-0.20
2019-02-01T04:42:10.664Z,-0.20
2019-02-01T04:44:51.482Z,-0.20
2019-02-01T04:47:32.038Z,-0.20
2019-02-01T04:50:12.817Z,-0.20
2019-02-01T04:52:53.566Z,-0.20
2019-02-01T04:55:34.487Z,-0.20
2019-02-01T04:58:14.916Z,-0.20
2019-02-01T05:00:55.946Z,-0.20
2019-02-01T05:03:36.789Z,-0.20
2019-02-01T05:06:17.507Z,-0.10
2019-02-01T05:08:58.268Z,-0.10
2019-02-01T05:11:39.170Z,-0.10
2019-02-01T05:14:19.993Z,-0.10
2019-02-01T05:17:00.902Z,-0.10
2019-02-01T05:19:41.406Z,-0.10
2019-02-01T05:22:21.785Z,-0.10
2019-02-01T05:25:02.386Z,-0.10
2019-02-01T05:27:43.519Z,-0.10
2019-02-01T05:30:24.103Z,-0.10
2019-02-01T05:33:05.062Z,0.00
2019-02-01T05:35:46.035Z,0.00
2019-02-01T05:38:26.964Z,0.00
2019-02-01T05:41:07.720Z,0.00
2019-02-01T05:43:48.262Z,0.00
2019-02-01T05:46:28.673Z,0.00
2019-02-01T05:49:09.496Z,0.20
2019-02-01T05:51:50.321Z,0.70
2019-02-01T05:54:31.013Z,0.90
2019-02-01T05:57:11.877Z,1.10
2019-02-01T05:59:52.723Z,1.20
2019-02-01T06:02:33.168Z,1.40
2019-02-01T06:05:13.926Z,1.30
2019-02-01T06:07:54.350Z,1.10
2019-02-01T06:10:34.862Z,0.90
2019-02-01T06:13:15.649Z,0.80
2019-02-01T06:15:56.573Z,0.60
2019-02-01T06:18:37.374Z,0.50
2019-02-01T06:21:18.367Z,0.50
2019-02-01T06:23:58.923Z,0.40
2019-02-01T06:26:39.963Z,0.40
2019-02-01T06:29:20.796Z,0.30
2019-02-01T06:32:01.614Z,0.30
2019-02-01T06:34:42.514Z,0.30
2019-02-01T06:37:23.318Z,0.30
2019-02-01T06:40:03.960Z,0.20
2019-02-01T06:42:44.719Z,0.20
2019-02-01T06:45:53.335Z,0.20
2019-02-01T06:48:41.289Z,0.20
2019-02-01T06:54:23.779Z,0.20
2019-02-01T06:57:11.677Z,0.20
2019-02-01T06:59:59.564Z,0.20
2019-02-01T07:02:47.535Z,0.20
2019-02-01T07:08:30.286Z,0.20
2019-02-01T07:14:05.672Z,0.20
2019-02-01T07:16:52.271Z,0.20
2019-02-01T07:23:07.426Z,0.20
2019-02-01T07:25:52.343Z,0.20
2019-02-01T07:31:27.805Z,0.20
2019-02-01T07:34:10.238Z,0.20
2019-02-01T07:36:50.969Z,0.20
2019-02-01T07:39:31.966Z,0.20
2019-02-01T07:42:12.717Z,0.20
2019-02-01T07:44:53.662Z,0.20
2019-02-01T07:47:34.521Z,0.20
2019-02-01T07:50:23.654Z,0.20
2019-02-01T07:52:57.406Z,0.20
2019-02-01T07:55:37.929Z,0.20
2019-02-01T07:58:18.451Z,0.20
2019-02-01T08:00:59.258Z,0.20
2019-02-01T08:03:40.055Z,0.30
2019-02-01T08:06:20.603Z,0.30
2019-02-01T08:09:02.714Z,0.30
2019-02-01T08:11:43.829Z,0.40
2019-02-01T08:14:24.951Z,0.40
2019-02-01T08:17:05.668Z,0.40
2019-02-01T08:19:46.386Z,0.50
2019-02-01T08:22:27.316Z,0.40
2019-02-01T08:25:07.838Z,0.40
2019-02-01T08:27:48.592Z,0.40
2019-02-01T08:30:28.910Z,0.50
2019-02-01T08:33:09.646Z,0.40
2019-02-01T08:35:50.274Z,0.40
2019-02-01T08:38:31.015Z,0.50
2019-02-01T08:41:11.711Z,0.50
2019-02-01T08:43:52.449Z,0.50
2019-02-01T08:46:33.466Z,0.60
2019-02-01T08:49:14.294Z,0.60
2019-02-01T08:51:55.003Z,0.60
2019-02-01T08:54:35.838Z,0.70
2019-02-01T08:57:16.827Z,0.70
2019-02-01T08:59:57.754Z,0.70
2019-02-01T09:02:38.290Z,0.80
2019-02-01T09:05:18.725Z,0.80
2019-02-01T09:07:59.192Z,0.80
2019-02-01T09:10:39.899Z,0.80
2019-02-01T09:13:20.845Z,0.90
2019-02-01T09:16:01.689Z,0.90
2019-02-01T09:18:42.512Z,0.90
2019-02-01T09:21:22.986Z,0.90
2019-02-01T09:24:03.849Z,1.00
2019-02-01T09:26:44.554Z,1.00
2019-02-01T09:29:25.594Z,1.00
2019-02-01T09:32:06.293Z,1.10
2019-02-01T09:34:46.866Z,1.00
2019-02-01T09:37:27.363Z,1.10
2019-02-01T09:40:07.954Z,1.10
2019-02-01T09:42:48.454Z,1.10
2019-02-01T09:45:29.193Z,1.10
2019-02-01T09:48:09.710Z,1.10
2019-02-01T09:50:50.230Z,1.20
2019-02-01T09:53:30.874Z,1.20
2019-02-01T09:56:11.465Z,1.20
2019-02-01T09:58:52.206Z,1.20
2019-02-01T10:01:32.722Z,1.20
2019-02-01T10:04:13.138Z,1.30
2019-02-01T10:06:54.053Z,1.30
2019-02-01T10:09:34.978Z,1.20
2019-02-01T10:12:15.574Z,1.30
2019-02-01T10:14:56.333Z,1.30
2019-02-01T10:17:37.076Z,1.30
2019-02-01T10:20:17.899Z,1.30
2019-02-01T10:22:58.651Z,1.40
2019-02-01T10:25:39.434Z,1.40
2019-02-01T10:28:19.996Z,1.40
2019-02-01T10:31:00.969Z,1.50
2019-02-01T10:33:41.414Z,1.50
2019-02-01T10:36:21.998Z,1.60
2019-02-01T10:39:02.431Z,1.60
2019-02-01T10:41:50.452Z,1.70
2019-02-01T10:44:25.854Z,1.70
2019-02-01T10:47:11.241Z,1.80
2019-02-01T10:49:48.765Z,1.90
2019-02-01T10:52:29.079Z,1.90
2019-02-01T10:55:10.110Z,2.00
2019-02-01T10:57:50.710Z,2.00
2019-02-01T11:00:31.330Z,2.00
2019-02-01T11:03:12.145Z,2.10
2019-02-01T11:05:52.588Z,2.20
2019-02-01T11:08:33.445Z,2.30
2019-02-01T11:11:14.226Z,2.30
2019-02-01T11:13:54.899Z,2.40
2019-02-01T11:16:35.943Z,2.40
2019-02-01T11:19:16.446Z,2.50
2019-02-01T11:21:57.210Z,2.50
2019-02-01T11:24:37.798Z,2.50
2019-02-01T11:27:18.338Z,2.50
2019-02-01T11:29:59.030Z,2.60
2019-02-01T11:32:40.019Z,2.60
2019-02-01T11:35:21.017Z,2.70
2019-02-01T11:38:01.914Z,2.70
2019-02-01T11:40:42.570Z,2.80
2019-02-01T11:43:23.018Z,2.90
2019-02-01T11:46:03.938Z,2.90
2019-02-01T11:48:44.650Z,2.90
2019-02-01T11:51:25.847Z,2.90
2019-02-01T11:54:06.492Z,2.90
2019-02-01T11:56:46.893Z,2.90
2019-02-01T11:59:27.611Z,2.90
2019-02-01T12:02:08.203Z,2.90
2019-02-01T12:04:48.878Z,3.00
2019-02-01T12:07:29.387Z,3.00
2019-02-01T12:10:10.150Z,3.00
2019-02-01T12:12:51.290Z,3.00
2019-02-01T12:15:31.782Z,3.00
2019-02-01T12:18:12.319Z,3.00
2019-02-01T12:20:52.779Z,3.00
2019-02-01T12:23:33.554Z,3.00
2019-02-01T12:26:14.346Z,3.00
2019-02-01T12:28:55.360Z,3.10
2019-02-01T12:31:36.551Z,3.10
2019-02-01T12:34:17.070Z,3.10
2019-02-01T12:37:03.368Z,3.20
2019-02-01T12:39:39.918Z,3.20
2019-02-01T12:42:20.482Z,3.20
2019-02-01T12:45:01.020Z,3.20
2019-02-01T12:47:42.079Z,3.20
2019-02-01T12:50:22.758Z,3.20
2019-02-01T12:53:11.403Z,3.30
2019-02-01T12:55:46.537Z,3.30
2019-02-01T12:58:27.461Z,3.30
2019-02-01T13:01:08.286Z,3.30
2019-02-01T13:03:49.063Z,3.30
2019-02-01T13:06:29.755Z,3.30
2019-02-01T13:09:10.409Z,3.30
2019-02-01T13:11:51.127Z,3.30
2019-02-01T13:14:31.494Z,3.30
2019-02-01T13:17:11.996Z,3.40
2019-02-01T13:19:53.715Z,3.40
2019-02-01T13:22:34.036Z,3.40
2019-02-01T13:25:14.919Z,3.40
2019-02-01T13:27:55.781Z,3.50
2019-02-01T13:30:36.251Z,3.50
2019-02-01T13:33:16.702Z,3.50
2019-02-01T13:35:57.669Z,3.60
2019-02-01T13:38:38.859Z,3.70
2019-02-01T13:41:20.001Z,3.80
2019-02-01T13:44:00.536Z,3.90
2019-02-01T13:46:41.167Z,3.90
2019-02-01T13:49:21.958Z,3.90
2019-02-01T13:52:02.766Z,3.90
2019-02-01T13:54:43.492Z,3.90
2019-02-01T13:57:24.537Z,3.90
2019-02-01T14:00:06.929Z,4.00
2019-02-01T14:02:47.296Z,4.00
2019-02-01T14:05:28.051Z,3.90
2019-02-01T14:08:08.579Z,4.00
2019-02-01T14:10:48.871Z,4.00
2019-02-01T14:13:29.370Z,4.00
2019-02-01T14:16:09.991Z,4.00
2019-02-01T14:18:50.782Z,4.00
2019-02-01T14:21:31.682Z,4.10
2019-02-01T14:24:12.500Z,4.10
2019-02-01T14:26:53.429Z,4.20
2019-02-01T14:29:34.046Z,4.20
2019-02-01T14:32:14.610Z,4.20
2019-02-01T14:34:55.459Z,4.20
2019-02-01T14:37:35.931Z,4.30
2019-02-01T14:40:16.642Z,4.30
2019-02-01T14:42:57.315Z,4.30
2019-02-01T14:45:38.194Z,4.30
2019-02-01T14:48:19.319Z,4.30
2019-02-01T14:51:00.174Z,4.30
2019-02-01T14:53:40.557Z,4.30
2019-02-01T14:56:21.666Z,4.30
2019-02-01T15:02:10.548Z,4.20
2019-02-01T15:04:51.370Z,4.10
2019-02-01T15:07:32.186Z,4.10
2019-02-01T15:10:12.642Z,4.10
2019-02-01T15:12:53.238Z,4.00
2019-02-01T15:15:34.105Z,4.00
2019-02-01T15:18:15.091Z,3.90
2019-02-01T15:20:55.785Z,3.90
2019-02-01T15:23:36.859Z,3.80
2019-02-01T15:26:17.485Z,3.70
2019-02-01T15:28:58.077Z,3.70
2019-02-01T15:31:38.537Z,3.70
2019-02-01T15:34:18.883Z,3.60
2019-02-01T15:36:59.766Z,3.60
2019-02-01T15:39:40.619Z,3.50
2019-02-01T15:42:21.215Z,3.40
2019-02-01T15:45:01.900Z,3.40
2019-02-01T15:47:42.266Z,3.30
2019-02-01T15:50:23.013Z,3.30
2019-02-01T15:53:04.029Z,3.20
2019-02-01T15:55:44.685Z,3.20
2019-02-01T15:58:25.127Z,3.10
2019-02-01T16:01:06.063Z,3.10
2019-02-01T16:03:49.292Z,3.00
2019-02-01T16:06:29.437Z,3.00
2019-02-01T16:09:11.086Z,3.00
2019-02-01T16:11:51.795Z,2.90
2019-02-01T16:14:32.302Z,2.90
2019-02-01T16:17:12.835Z,2.80
2019-02-01T16:19:53.705Z,2.80
2019-02-01T16:22:34.479Z,2.80
2019-02-01T16:25:15.105Z,2.70
2019-02-01T16:27:56.061Z,2.70
2019-02-01T16:30:36.834Z,2.70
2019-02-01T16:33:17.506Z,2.60
2019-02-01T16:35:58.273Z,2.60
2019-02-01T16:38:39.047Z,2.60
2019-02-01T16:41:19.746Z,2.60
2019-02-01T16:44:00.313Z,2.50
2019-02-01T16:46:40.830Z,2.50
2019-02-01T16:49:21.767Z,2.40
2019-02-01T16:52:02.339Z,2.40
2019-02-01T16:54:44.750Z,2.30
2019-02-01T16:57:25.608Z,2.30
2019-02-01T17:00:07.483Z,2.30
2019-02-01T17:02:47.922Z,2.20
2019-02-01T17:05:28.850Z,2.20
2019-02-01T17:08:09.603Z,2.20
2019-02-01T17:10:50.323Z,2.10
2019-02-01T17:13:31.155Z,2.10
2019-02-01T17:16:12.026Z,2.10
2019-02-01T17:18:52.931Z,2.00
2019-02-01T17:21:33.795Z,2.00
2019-02-01T17:24:14.367Z,1.90
2019-02-01T17:26:55.333Z,1.90
2019-02-01T17:29:35.859Z,1.90
2019-02-01T17:32:16.667Z,1.80
2019-02-01T17:34:57.262Z,1.80
2019-02-01T17:37:38.339Z,1.80
2019-02-01T17:40:18.767Z,1.80
2019-02-01T17:42:59.302Z,1.80
2019-02-01T17:45:39.961Z,1.80
2019-02-01T17:48:20.615Z,1.70
2019-02-01T17:51:01.206Z,1.70
2019-02-01T17:53:41.626Z,1.70
2019-02-01T17:56:22.554Z,1.70
2019-02-01T17:59:02.985Z,1.70
2019-02-01T18:01:44.113Z,1.70
2019-02-01T18:04:24.694Z,1.70
2019-02-01T18:07:05.290Z,1.70
2019-02-01T18:09:46.432Z,1.70
2019-02-01T18:12:27.355Z,1.70
2019-02-01T18:15:07.729Z,1.60
2019-02-01T18:17:48.527Z,1.60
2019-02-01T18:20:29.018Z,1.70
2019-02-01T18:23:09.802Z,1.70
2019-02-01T18:25:50.494Z,1.70
2019-02-01T18:28:31.468Z,1.60
2019-02-01T18:31:12.188Z,1.70
2019-02-01T18:33:52.983Z,1.70
2019-02-01T18:39:41.997Z,1.60
2019-02-01T18:42:22.441Z,1.60
2019-02-01T18:45:03.277Z,1.60
2019-02-01T18:47:43.987Z,1.60
2019-02-01T18:50:24.797Z,1.50
2019-02-01T18:53:05.714Z,1.50
2019-02-01T18:55:46.366Z,1.50
2019-02-01T18:58:27.036Z,1.50
2019-02-01T19:01:07.728Z,1.50
2019-02-01T19:03:48.222Z,1.40
2019-02-01T19:06:28.814Z,1.40
2019-02-01T19:09:09.602Z,1.40
2019-02-01T19:11:50.048Z,1.40
2019-02-01T19:14:30.558Z,1.30
2019-02-01T19:17:11.187Z,1.30
2019-02-01T19:19:51.989Z,1.30
2019-02-01T19:22:20.548Z,1.30
2019-02-01T19:25:29.174Z,1.30
2019-02-01T19:28:17.074Z,1.20
2019-02-01T19:31:05.123Z,1.20
2019-02-01T19:33:53.022Z,1.20
2019-02-01T19:36:40.902Z,1.20
2019-02-01T19:39:28.797Z,1.20
2019-02-01T19:42:16.673Z,1.20
2019-02-01T19:45:25.321Z,1.20
2019-02-01T19:48:13.203Z,1.20
2019-02-01T19:51:01.234Z,1.10
2019-02-01T19:53:49.133Z,1.10
2019-02-01T19:56:37.009Z,1.10
2019-02-01T19:59:24.913Z,1.10
2019-02-01T20:02:13.255Z,1.10
2019-02-01T20:05:01.202Z,1.10
2019-02-01T20:07:49.278Z,1.10
2019-02-01T20:10:37.546Z,1.10
2019-02-01T20:13:18.446Z,1.00
2019-02-01T20:15:59.473Z,1.00
2019-02-01T20:18:40.229Z,1.00
2019-02-01T20:21:20.814Z,1.00
2019-02-01T20:24:01.326Z,1.00
2019-02-01T20:26:42.030Z,1.00
2019-02-01T20:29:22.898Z,1.00
2019-02-01T20:32:03.782Z,1.00
2019-02-01T20:34:45.073Z,1.00
2019-02-01T20:37:25.801Z,0.90
2019-02-01T20:40:06.848Z,0.90
2019-02-01T20:42:47.549Z,0.90
2019-02-01T20:45:28.006Z,0.90
2019-02-01T20:48:08.887Z,0.90
2019-02-01T20:50:49.412Z,0.90
2019-02-01T20:53:30.379Z,0.90
2019-02-01T20:56:19.493Z,0.90
2019-02-01T20:58:53.874Z,0.90
2019-02-01T21:01:35.033Z,0.80
2019-02-01T21:04:15.823Z,0.90
2019-02-01T21:06:56.938Z,0.80
2019-02-01T21:09:37.942Z,0.90
2019-02-01T21:12:18.733Z,0.80
2019-02-01T21:14:59.292Z,0.80
2019-02-01T21:17:40.174Z,0.80
2019-02-01T21:20:20.973Z,0.80
2019-02-01T21:23:01.765Z,0.80
2019-02-01T21:25:42.639Z,0.80
2019-02-01T21:28:23.474Z,0.80
2019-02-01T21:31:04.381Z,0.80
2019-02-01T21:33:44.807Z,0.80
2019-02-01T21:36:25.310Z,0.80
2019-02-01T21:39:05.884Z,0.80
2019-02-01T21:41:46.413Z,0.80
2019-02-01T21:47:46.222Z,0.80
2019-02-01T21:50:26.676Z,0.80
2019-02-01T21:53:07.486Z,0.80
2019-02-01T21:55:48.298Z,0.80
2019-02-01T21:58:29.270Z,0.80
2019-02-01T22:01:10.246Z,0.70
2019-02-01T22:03:51.670Z,0.70
2019-02-01T22:06:32.062Z,0.70
2019-02-01T22:09:12.646Z,0.70
2019-02-01T22:11:53.582Z,0.70
2019-02-01T22:14:33.997Z,0.70
2019-02-01T22:17:14.975Z,0.60
2019-02-01T22:19:55.446Z,0.60
2019-02-01T22:22:35.962Z,0.60
2019-02-01T22:25:16.657Z,0.60
2019-02-01T22:27:57.768Z,0.60
2019-02-01T22:30:38.304Z,0.60
2019-02-01T22:36:26.806Z,0.60
2019-02-01T22:39:07.324Z,0.60
2019-02-01T22:41:48.832Z,0.50
2019-02-01T22:44:29.948Z,0.60
2019-02-01T22:47:10.942Z,0.50
2019-02-01T22:49:51.342Z,0.50
2019-02-01T22:52:31.654Z,0.50
2019-02-01T22:55:12.556Z,0.60
2019-02-01T22:57:53.314Z,0.60
2019-02-01T23:00:38.406Z,0.60
2019-02-01T23:03:18.852Z,0.50
2019-02-01T23:05:59.534Z,0.50
2019-02-01T23:08:40.452Z,0.50
2019-02-01T23:11:21.047Z,0.50
2019-02-01T23:14:01.977Z,0.50
2019-02-01T23:16:42.674Z,0.50
2019-02-01T23:19:23.666Z,0.50
2019-02-01T23:22:04.251Z,0.50
2019-02-01T23:24:44.867Z,0.50
2019-02-01T23:27:25.466Z,0.50
2019-02-01T23:30:06.126Z,0.50
2019-02-01T23:32:47.117Z,0.50
2019-02-01T23:35:27.809Z,0.50
2019-02-01T23:38:08.648Z,0.50
2019-02-01T23:40:49.285Z,0.50
2019-02-01T23:43:30.162Z,0.50
2019-02-01T23:49:30.487Z,0.50
2019-02-01T23:52:11.049Z,0.50
2019-02-01T23:54:52.157Z,0.50
2019-02-01T23:57:32.859Z,0.50
